createdAt,value
2017-09-04T00:01:27.600Z,74.00
2017-09-04T00:04:28.944Z,74.40
2017-09-04T00:07:30.520Z,74.10
2017-09-04T00:10:31.814Z,74.10
2017-09-04T00:13:33.157Z,74.30
2017-09-04T00:16:34.448Z,74.40
2017-09-04T00:19:35.763Z,74.80
2017-09-04T00:22:37.104Z,74.60
2017-09-04T00:25:38.597Z,74.30
2017-09-04T00:28:39.896Z,74.20
2017-09-04T00:31:41.285Z,74.30
2017-09-04T00:34:42.600Z,74.60
2017-09-04T00:37:43.945Z,74.50
2017-09-04T00:40:45.269Z,74.90
2017-09-04T00:43:46.866Z,75.20
2017-09-04T00:46:48.172Z,75.50
2017-09-04T00:49:49.510Z,74.90
2017-09-04T00:52:50.860Z,74.80
2017-09-04T00:55:52.285Z,74.30
2017-09-04T00:58:54.025Z,74.70
2017-09-04T01:01:55.367Z,74.60
2017-09-04T01:04:56.709Z,74.40
2017-09-04T01:07:58.056Z,74.30
2017-09-04T01:10:59.441Z,74.70
2017-09-04T01:14:00.820Z,74.40
2017-09-04T01:17:02.188Z,74.30
2017-09-04T01:20:03.518Z,74.60
2017-09-04T01:23:04.869Z,74.80
2017-09-04T01:26:06.325Z,74.80
2017-09-04T01:29:07.642Z,74.80
2017-09-04T01:32:09.012Z,74.50
2017-09-04T01:35:10.322Z,74.30
2017-09-04T01:38:11.685Z,74.80
2017-09-04T01:41:13.007Z,74.40
2017-09-04T01:44:14.339Z,74.10
2017-09-04T01:47:15.621Z,74.40
2017-09-04T01:50:16.985Z,75.30
2017-09-04T01:53:18.436Z,74.20
2017-09-04T01:56:19.756Z,74.30
2017-09-04T01:59:21.177Z,74.30
2017-09-04T02:02:22.465Z,74.50
2017-09-04T02:05:23.789Z,73.70
2017-09-04T02:08:25.088Z,74.50
2017-09-04T02:11:26.432Z,74.10
2017-09-04T02:14:27.736Z,74.50
2017-09-04T02:17:29.073Z,74.30
2017-09-04T02:20:30.391Z,74.20
2017-09-04T02:23:31.706Z,73.60
2017-09-04T02:26:33.036Z,73.90
2017-09-04T02:29:34.364Z,74.00
2017-09-04T02:32:35.716Z,74.00
2017-09-04T02:35:37.018Z,74.40
2017-09-04T02:38:38.364Z,74.30
2017-09-04T02:41:39.685Z,74.50
2017-09-04T02:44:40.998Z,74.20
2017-09-04T02:47:42.434Z,74.50
2017-09-04T02:50:43.741Z,74.70
2017-09-04T02:53:45.073Z,74.60
2017-09-04T02:56:46.404Z,74.60
2017-09-04T02:59:47.768Z,74.30
2017-09-04T03:02:49.079Z,74.50
2017-09-04T03:05:50.397Z,74.30
2017-09-04T03:08:51.693Z,73.70
2017-09-04T03:11:53.042Z,74.50
2017-09-04T03:14:54.341Z,74.50
2017-09-04T03:17:55.696Z,73.90
2017-09-04T03:20:57.277Z,74.00
2017-09-04T03:23:58.641Z,74.60
2017-09-04T03:27:00.029Z,74.80
2017-09-04T03:30:01.414Z,74.50
2017-09-04T03:33:02.788Z,74.60
2017-09-04T03:36:04.121Z,74.50
2017-09-04T03:39:05.490Z,74.80
2017-09-04T03:42:07.013Z,75.60
2017-09-04T03:45:08.381Z,74.70
2017-09-04T03:48:09.769Z,74.70
2017-09-04T03:51:11.148Z,74.30
2017-09-04T03:54:12.568Z,74.40
2017-09-04T03:57:13.933Z,75.20
2017-09-04T04:00:15.301Z,74.70
2017-09-04T04:03:16.841Z,74.50
2017-09-04T04:06:18.189Z,74.80
2017-09-04T04:09:19.581Z,74.60
2017-09-04T04:12:20.944Z,74.80
2017-09-04T04:15:22.365Z,74.70
2017-09-04T04:18:23.684Z,74.80
2017-09-04T04:21:25.052Z,74.80
2017-09-04T04:24:26.511Z,74.70
2017-09-04T04:27:27.829Z,74.60
2017-09-04T04:30:29.214Z,74.90
2017-09-04T04:33:30.529Z,74.80
2017-09-04T04:36:31.848Z,74.80
2017-09-04T04:39:33.145Z,74.60
2017-09-04T04:42:34.461Z,74.60
2017-09-04T04:45:35.924Z,75.20
2017-09-04T04:48:37.237Z,74.60
2017-09-04T04:51:38.581Z,74.60
2017-09-04T04:54:39.893Z,74.60
2017-09-04T04:57:41.214Z,74.80
2017-09-04T05:00:42.524Z,74.50
2017-09-04T05:03:43.833Z,74.60
2017-09-04T05:06:45.608Z,74.90
2017-09-04T05:09:46.891Z,74.80
2017-09-04T05:12:48.241Z,76.00
2017-09-04T05:15:49.544Z,75.10
2017-09-04T05:18:50.873Z,75.40
2017-09-04T05:21:52.186Z,75.90
2017-09-04T05:24:53.569Z,75.80
2017-09-04T05:27:54.889Z,75.80
2017-09-04T05:30:56.217Z,75.70
2017-09-04T05:33:57.508Z,76.00
2017-09-04T05:36:58.849Z,76.20
2017-09-04T05:40:00.156Z,75.90
2017-09-04T05:43:01.482Z,76.20
2017-09-04T05:46:02.921Z,76.40
2017-09-04T05:49:04.260Z,76.70
2017-09-04T05:52:05.593Z,76.50
2017-09-04T05:55:06.869Z,76.40
2017-09-04T05:58:08.209Z,76.50
2017-09-04T06:01:09.521Z,76.50
2017-09-04T06:04:10.877Z,76.80
2017-09-04T06:07:12.200Z,76.80
2017-09-04T06:10:13.529Z,76.80
2017-09-04T06:13:14.830Z,77.20
2017-09-04T06:16:16.243Z,77.20
2017-09-04T06:19:17.958Z,77.30
2017-09-04T06:22:19.268Z,77.10
2017-09-04T06:25:20.613Z,77.20
2017-09-04T06:28:21.910Z,76.50
2017-09-04T06:31:23.242Z,77.70
2017-09-04T06:34:24.549Z,77.50
2017-09-04T06:37:25.889Z,77.70
2017-09-04T06:40:27.260Z,77.60
2017-09-04T06:43:28.580Z,77.90
2017-09-04T06:46:29.912Z,78.10
2017-09-04T06:49:31.240Z,76.50
2017-09-04T06:52:32.601Z,74.70
2017-09-04T06:55:34.045Z,75.80
2017-09-04T06:58:35.360Z,76.80
2017-09-04T07:01:36.676Z,77.30
2017-09-04T07:04:37.962Z,77.60
2017-09-04T07:07:39.337Z,76.10
2017-09-04T07:10:40.630Z,76.50
2017-09-04T07:13:42.020Z,74.20
2017-09-04T07:16:43.364Z,77.50
2017-09-04T07:19:44.690Z,77.80
2017-09-04T07:22:46.146Z,76.40
2017-09-04T07:25:47.452Z,77.30
2017-09-04T07:28:48.749Z,76.10
2017-09-04T07:31:50.053Z,74.30
2017-09-04T07:34:51.377Z,76.40
2017-09-04T07:37:52.688Z,75.80
2017-09-04T07:40:54.024Z,71.10
2017-09-04T07:43:55.337Z,70.70
2017-09-04T07:46:56.676Z,70.70
2017-09-04T07:49:58.016Z,71.30
2017-09-04T07:52:59.345Z,72.80
2017-09-04T07:56:00.641Z,70.30
2017-09-04T07:59:01.961Z,70.30
2017-09-04T08:02:03.249Z,68.00
2017-09-04T08:05:04.601Z,67.40
2017-09-04T08:08:05.980Z,67.50
2017-09-04T08:11:07.333Z,66.50
2017-09-04T08:14:08.704Z,70.30
2017-09-04T08:17:10.048Z,70.90
2017-09-04T08:20:11.357Z,72.40
2017-09-04T08:23:12.720Z,69.30
2017-09-04T08:26:14.014Z,66.80
2017-09-04T08:29:15.341Z,66.40
2017-09-04T08:32:17.054Z,67.80
2017-09-04T08:35:18.337Z,66.90
2017-09-04T08:38:19.703Z,69.00
2017-09-04T08:41:21.056Z,67.40
2017-09-04T08:44:22.428Z,66.80
2017-09-04T08:47:23.710Z,68.00
2017-09-04T08:50:25.038Z,67.20
2017-09-04T08:53:26.388Z,67.00
2017-09-04T08:56:27.969Z,67.10
2017-09-04T08:59:29.277Z,66.30
2017-09-04T09:02:30.672Z,65.60
2017-09-04T09:05:32.132Z,65.40
2017-09-04T09:08:33.442Z,63.80
2017-09-04T09:11:34.749Z,63.00
2017-09-04T09:14:36.090Z,63.40
2017-09-04T09:17:37.429Z,62.70
2017-09-04T09:20:38.737Z,60.90
2017-09-04T09:23:40.148Z,60.00
2017-09-04T09:26:41.604Z,61.00
2017-09-04T09:29:42.924Z,60.00
2017-09-04T09:32:44.265Z,63.00
2017-09-04T09:35:45.557Z,60.90
2017-09-04T09:38:46.908Z,60.20
2017-09-04T09:41:48.213Z,58.90
2017-09-04T09:44:49.552Z,58.20
2017-09-04T09:47:50.889Z,57.80
2017-09-04T09:50:52.276Z,57.30
2017-09-04T09:53:53.625Z,56.30
2017-09-04T09:56:55.094Z,57.50
2017-09-04T09:59:56.424Z,57.80
2017-09-04T10:02:57.773Z,55.50
2017-09-04T10:05:59.116Z,53.90
2017-09-04T10:09:00.453Z,58.80
2017-09-04T10:12:01.797Z,61.40
2017-09-04T10:15:03.142Z,53.50
2017-09-04T10:18:04.590Z,55.20
2017-09-04T10:21:05.907Z,56.70
2017-09-04T10:24:07.336Z,56.90
2017-09-04T10:27:08.676Z,54.60
2017-09-04T10:30:10.070Z,54.10
2017-09-04T10:33:11.393Z,54.60
2017-09-04T10:36:12.736Z,55.00
2017-09-04T10:39:14.077Z,53.10
2017-09-04T10:42:15.440Z,55.30
2017-09-04T10:45:16.769Z,53.40
2017-09-04T10:48:18.153Z,51.60
2017-09-04T10:51:19.488Z,53.10
2017-09-04T10:54:20.864Z,54.60
2017-09-04T10:57:22.251Z,53.20
2017-09-04T11:00:23.633Z,53.10
2017-09-04T11:03:24.929Z,52.80
2017-09-04T11:06:26.265Z,49.80
2017-09-04T11:09:27.571Z,52.10
2017-09-04T11:12:28.936Z,52.90
2017-09-04T11:15:30.286Z,49.10
2017-09-04T11:18:31.769Z,52.00
2017-09-04T11:21:33.077Z,54.10
2017-09-04T11:24:34.518Z,55.80
2017-09-04T11:27:35.837Z,51.00
2017-09-04T11:30:37.293Z,48.40
2017-09-04T11:33:38.609Z,50.30
2017-09-04T11:36:39.969Z,50.90
2017-09-04T11:39:41.308Z,50.00
2017-09-04T11:42:42.621Z,50.50
2017-09-04T11:45:43.909Z,54.90
2017-09-04T11:48:45.264Z,56.00
2017-09-04T11:51:46.621Z,49.30
2017-09-04T11:54:47.985Z,51.60
2017-09-04T11:57:49.262Z,51.10
2017-09-04T12:00:50.658Z,48.80
2017-09-04T12:03:51.981Z,50.40
2017-09-04T12:06:53.281Z,50.80
2017-09-04T12:09:54.741Z,54.00
2017-09-04T12:12:56.092Z,57.80
2017-09-04T12:15:57.433Z,53.60
2017-09-04T12:18:58.760Z,52.40
2017-09-04T12:22:00.081Z,51.80
2017-09-04T12:25:01.448Z,52.10
2017-09-04T12:28:02.829Z,49.80
2017-09-04T12:31:04.173Z,48.10
2017-09-04T12:34:05.557Z,50.00
2017-09-04T12:37:06.841Z,51.20
2017-09-04T12:40:08.177Z,52.10
2017-09-04T12:43:09.680Z,50.60
2017-09-04T12:46:11.017Z,50.50
2017-09-04T12:49:12.389Z,50.70
2017-09-04T12:52:13.736Z,50.50
2017-09-04T12:55:15.073Z,51.10
2017-09-04T12:58:16.370Z,51.00
2017-09-04T13:01:17.714Z,48.80
2017-09-04T13:04:19.065Z,48.70
2017-09-04T13:07:20.457Z,47.40
2017-09-04T13:10:27.917Z,47.90
2017-09-04T13:13:29.290Z,46.90
2017-09-04T13:16:36.626Z,48.70
2017-09-04T13:19:44.014Z,47.10
2017-09-04T13:26:27.853Z,50.30
2017-09-04T13:29:35.248Z,54.20
2017-09-04T13:36:22.906Z,48.70
2017-09-04T13:43:06.560Z,50.30
2017-09-04T13:46:13.853Z,50.60
2017-09-04T13:49:15.225Z,45.90
2017-09-04T13:52:22.757Z,46.60
2017-09-04T13:58:58.149Z,49.30
2017-09-04T14:02:05.501Z,48.20
2017-09-04T14:08:47.065Z,49.70
2017-09-04T14:11:54.428Z,46.60
2017-09-04T14:14:58.725Z,44.70
2017-09-04T14:18:06.057Z,41.80
2017-09-04T14:21:07.452Z,47.30
2017-09-04T14:24:08.773Z,45.50
2017-09-04T14:27:10.162Z,44.00
2017-09-04T14:30:11.508Z,44.60
2017-09-04T14:33:12.864Z,46.80
2017-09-04T14:36:14.508Z,42.80
2017-09-04T14:39:15.858Z,43.90
2017-09-04T14:42:17.236Z,42.20
2017-09-04T14:45:18.579Z,45.50
2017-09-04T14:48:19.933Z,41.10
2017-09-04T14:51:21.249Z,45.00
2017-09-04T14:54:22.644Z,47.00
2017-09-04T14:57:24.003Z,49.70
2017-09-04T15:00:25.399Z,51.00
2017-09-04T15:03:26.725Z,52.00
2017-09-04T15:06:28.096Z,52.90
2017-09-04T15:09:29.413Z,48.40
2017-09-04T15:12:30.754Z,48.70
2017-09-04T15:15:32.080Z,47.40
2017-09-04T15:18:33.452Z,47.70
2017-09-04T15:21:34.770Z,53.80
2017-09-04T15:24:36.101Z,56.10
2017-09-04T15:27:37.489Z,59.90
2017-09-04T15:30:38.827Z,55.50
2017-09-04T15:33:40.311Z,50.50
2017-09-04T15:36:41.649Z,52.00
2017-09-04T15:39:43.036Z,53.20
2017-09-04T15:42:44.397Z,50.30
2017-09-04T15:45:45.788Z,49.60
2017-09-04T15:48:47.118Z,49.50
2017-09-04T15:51:48.492Z,54.60
2017-09-04T15:54:49.825Z,53.10
2017-09-04T15:57:51.209Z,58.00
2017-09-04T16:00:52.556Z,59.00
2017-09-04T16:03:53.897Z,62.60
2017-09-04T16:06:55.440Z,59.40
2017-09-04T16:09:56.787Z,65.30
2017-09-04T16:13:08.517Z,64.70
2017-09-04T16:16:09.828Z,67.50
2017-09-04T16:19:11.312Z,63.80
2017-09-04T16:25:53.714Z,70.40
2017-09-04T16:36:07.128Z,68.70
2017-09-04T16:39:23.380Z,68.20
2017-09-04T16:42:34.676Z,69.50
2017-09-04T16:45:36.015Z,69.70
2017-09-04T16:48:43.269Z,70.50
2017-09-04T16:51:55.386Z,71.10
2017-09-04T16:54:57.513Z,71.40
2017-09-04T16:57:58.873Z,70.80
2017-09-04T17:01:00.194Z,71.70
2017-09-04T17:04:01.529Z,72.70
2017-09-04T17:07:02.921Z,71.50
2017-09-04T17:10:04.229Z,72.00
2017-09-04T17:13:05.737Z,71.50
2017-09-04T17:16:09.113Z,70.40
2017-09-04T17:19:11.365Z,71.10
2017-09-04T17:22:12.733Z,71.50
2017-09-04T17:28:43.450Z,71.20
2017-09-04T17:31:44.812Z,72.40
2017-09-04T17:34:46.314Z,72.10
2017-09-04T17:37:47.645Z,72.00
2017-09-04T17:40:49.022Z,72.20
2017-09-04T17:43:50.369Z,71.90
2017-09-04T17:46:51.741Z,71.40
2017-09-04T17:49:53.121Z,71.60
2017-09-04T17:52:54.504Z,71.40
2017-09-04T17:55:55.857Z,71.40
2017-09-04T17:58:57.270Z,71.30
2017-09-04T18:01:58.772Z,71.40
2017-09-04T18:05:00.121Z,71.40
2017-09-04T18:08:01.816Z,71.10
2017-09-04T18:11:03.126Z,70.90
2017-09-04T18:14:04.493Z,71.10
2017-09-04T18:17:05.862Z,71.40
2017-09-04T18:20:07.255Z,70.80
2017-09-04T18:23:08.617Z,70.80
2017-09-04T18:26:10.029Z,70.60
2017-09-04T18:29:11.753Z,70.50
2017-09-04T18:32:13.169Z,70.40
2017-09-04T18:35:14.502Z,70.50
2017-09-04T18:38:15.857Z,70.60
2017-09-04T18:41:17.255Z,70.40
2017-09-04T18:44:18.602Z,70.10
2017-09-04T18:47:20.044Z,70.30
2017-09-04T18:50:21.378Z,70.20
2017-09-04T18:53:22.750Z,69.90
2017-09-04T18:56:24.230Z,70.10
2017-09-04T18:59:25.574Z,70.00
2017-09-04T19:02:27.187Z,70.40
2017-09-04T19:05:28.589Z,70.30
2017-09-04T19:08:29.964Z,70.20
2017-09-04T19:11:31.491Z,69.90
2017-09-04T19:14:32.882Z,69.90
2017-09-04T19:17:34.255Z,70.20
2017-09-04T19:20:35.680Z,70.30
2017-09-04T19:23:37.052Z,70.30
2017-09-04T19:26:38.534Z,70.30
2017-09-04T19:29:40.100Z,70.50
2017-09-04T19:32:41.455Z,70.70
2017-09-04T19:35:42.872Z,70.20
2017-09-04T19:38:44.249Z,70.90
2017-09-04T19:41:45.613Z,70.70
2017-09-04T19:44:46.986Z,70.50
2017-09-04T19:47:48.389Z,70.50
2017-09-04T19:50:49.892Z,70.50
2017-09-04T19:53:51.681Z,70.50
2017-09-04T19:56:53.133Z,70.80
2017-09-04T19:59:54.433Z,70.50
2017-09-04T20:02:55.785Z,70.60
2017-09-04T20:05:57.129Z,70.60
2017-09-04T20:08:58.457Z,70.80
2017-09-04T20:11:59.804Z,70.80
2017-09-04T20:15:01.181Z,71.00
2017-09-04T20:18:02.505Z,71.20
2017-09-04T20:21:03.901Z,70.90
2017-09-04T20:24:05.332Z,71.00
2017-09-04T20:27:06.779Z,70.80
2017-09-04T20:30:08.217Z,70.70
2017-09-04T20:33:09.517Z,70.90
2017-09-04T20:36:10.864Z,70.80
2017-09-04T20:39:12.200Z,70.80
2017-09-04T20:42:13.528Z,71.10
2017-09-04T20:45:14.870Z,71.20
2017-09-04T20:48:16.252Z,71.30
2017-09-04T20:51:17.597Z,71.20
2017-09-04T20:54:18.938Z,71.40
2017-09-04T20:57:20.244Z,71.60
2017-09-04T21:00:21.605Z,71.50
2017-09-04T21:03:22.974Z,72.00
2017-09-04T21:06:24.328Z,71.50
2017-09-04T21:09:25.700Z,71.40
2017-09-04T21:12:27.054Z,71.60
2017-09-04T21:15:28.472Z,72.20
2017-09-04T21:18:29.789Z,72.30
2017-09-04T21:21:31.181Z,72.50
2017-09-04T21:24:32.501Z,72.20
2017-09-04T21:27:33.912Z,72.20
2017-09-04T21:30:35.228Z,72.50
2017-09-04T21:33:36.586Z,72.40
2017-09-04T21:36:37.893Z,72.50
2017-09-04T21:39:39.243Z,72.30
2017-09-04T21:42:40.612Z,72.30
2017-09-04T21:45:41.989Z,72.50
2017-09-04T21:48:43.293Z,72.80
2017-09-04T21:51:44.640Z,72.70
2017-09-04T21:54:46.070Z,72.30
2017-09-04T21:57:47.383Z,72.50
2017-09-04T22:00:49.691Z,72.30
2017-09-04T22:03:51.001Z,72.10
2017-09-04T22:06:52.357Z,72.50
2017-09-04T22:09:53.693Z,73.10
2017-09-04T22:12:55.069Z,73.40
2017-09-04T22:15:56.725Z,73.20
2017-09-04T22:18:58.057Z,73.10
2017-09-04T22:21:59.426Z,73.20
2017-09-04T22:25:00.745Z,72.80
2017-09-04T22:28:02.136Z,73.00
2017-09-04T22:31:03.469Z,73.40
2017-09-04T22:34:04.864Z,73.30
2017-09-04T22:37:06.220Z,73.80
2017-09-04T22:40:07.568Z,73.90
2017-09-04T22:43:08.888Z,73.50
2017-09-04T22:46:10.285Z,73.30
2017-09-04T22:49:11.800Z,72.20
2017-09-04T22:52:13.156Z,73.20
2017-09-04T22:55:14.632Z,74.10
2017-09-04T22:58:16.923Z,74.50
2017-09-04T23:01:18.256Z,73.90
2017-09-04T23:04:19.573Z,73.70
2017-09-04T23:07:20.929Z,73.40
2017-09-04T23:10:22.276Z,73.60
2017-09-04T23:13:23.625Z,72.00
2017-09-04T23:16:25.020Z,72.70
2017-09-04T23:19:26.325Z,72.00
2017-09-04T23:22:27.668Z,73.00
2017-09-04T23:25:28.969Z,71.50
2017-09-04T23:28:30.357Z,71.50
2017-09-04T23:31:31.701Z,71.40
2017-09-04T23:34:33.065Z,72.10
2017-09-04T23:37:34.369Z,73.00
2017-09-04T23:40:35.725Z,71.90
2017-09-04T23:43:37.229Z,72.50
2017-09-04T23:46:38.513Z,73.70
2017-09-04T23:49:39.889Z,74.20
2017-09-04T23:52:41.369Z,73.50
2017-09-04T23:55:42.705Z,73.10
2017-09-04T23:58:44.016Z,73.40
